Time;durP1;ratioP1;P1;durP2;ratioP2;P2;SDS_P1;SDS_P2;PMS_P1;PMS_P2;Temp;Humidity;BMP_temperature;BMP_pressure;BME280_temperature;BME280_humidity;BME280_pressure;Samples;Min_cycle;Max_cycle;Signal;HPM_P1;HPM_P2
2021/08/20 00:00:19;;;;;;;2.55;2.35;;;;;;;;;;4897308;29;20192;-85
2021/08/20 00:02:46;;;;;;;2.30;2.17;;;;;;;;;;4897139;29;20238;-84
2021/08/20 00:05:14;;;;;;;2.53;2.33;;;;;;;;;;4897441;29;20227;-85
2021/08/20 00:07:43;;;;;;;1.95;1.85;;;;;;;;;;4897552;29;20192;-85
2021/08/20 00:10:12;;;;;;;1.70;1.60;;;;;;;;;;4898954;29;20643;-85
2021/08/20 00:12:40;;;;;;;2.00;1.90;;;;;;;;;;4900697;29;20568;-85
2021/08/20 00:15:08;;;;;;;2.08;1.98;;;;;;;;;;4900762;29;20351;-85
2021/08/20 00:17:36;;;;;;;2.25;2.05;;;;;;;;;;4900906;29;20191;-85
2021/08/20 00:20:06;;;;;;;2.35;2.15;;;;;;;;;;4900423;29;20647;-85
2021/08/20 00:22:33;;;;;;;2.40;2.10;;;;;;;;;;4905059;29;20217;-85
2021/08/20 00:25:02;;;;;;;2.25;2.08;;;;;;;;;;4918900;29;20230;-85
2021/08/20 00:27:30;;;;;;;1.90;1.80;;;;;;;;;;4918710;29;20207;-85
2021/08/20 00:29:57;;;;;;;2.00;1.90;;;;;;;;;;4919237;29;20202;-85
2021/08/20 00:32:24;;;;;;;1.80;1.70;;;;;;;;;;4918933;29;20217;-85
2021/08/20 00:34:52;;;;;;;2.05;1.95;;;;;;;;;;4918155;29;20222;-85
2021/08/20 00:37:19;;;;;;;2.67;2.47;;;;;;;;;;4918942;29;20237;-84
2021/08/20 00:39:47;;;;;;;2.55;2.15;;;;;;;;;;4919125;29;20202;-85
2021/08/20 00:42:16;;;;;;;2.00;1.90;;;;;;;;;;4918793;29;20230;-85
2021/08/20 00:44:43;;;;;;;1.52;1.42;;;;;;;;;;4918440;29;20226;-86
2021/08/20 00:47:10;;;;;;;2.03;1.92;;;;;;;;;;4918919;29;20211;-85
2021/08/20 00:49:38;;;;;;;1.92;1.83;;;;;;;;;;4918850;29;20197;-85
2021/08/20 00:52:06;;;;;;;1.80;1.70;;;;;;;;;;4918687;29;20207;-86
2021/08/20 00:54:34;;;;;;;1.40;1.30;;;;;;;;;;4917963;29;20246;-85
2021/08/20 00:57:01;;;;;;;1.60;1.50;;;;;;;;;;4918587;29;20195;-86
2021/08/20 00:59:30;;;;;;;1.58;1.48;;;;;;;;;;4918214;29;20187;-85
2021/08/20 01:01:57;;;;;;;1.55;1.45;;;;;;;;;;4909806;29;20226;-86
2021/08/20 01:04:25;;;;;;;1.40;1.30;;;;;;;;;;4899532;29;20195;-86
2021/08/20 01:06:55;;;;;;;1.88;1.77;;;;;;;;;;4908064;29;20202;-86
2021/08/20 01:09:24;;;;;;;2.20;2.10;;;;;;;;;;4918152;29;20641;-86
2021/08/20 01:11:52;;;;;;;1.90;1.80;;;;;;;;;;4918238;29;20191;-86
2021/08/20 01:14:30;;;;;;;2.60;2.40;;;;;;;;;;4917843;29;20201;-86
2021/08/20 01:16:57;;;;;;;1.80;1.70;;;;;;;;;;4918235;29;20284;-85
2021/08/20 01:19:25;;;;;;;1.88;1.77;;;;;;;;;;4917846;29;20217;-85
2021/08/20 01:21:54;;;;;;;1.50;1.45;;;;;;;;;;4917278;29;20752;-86
2021/08/20 01:24:22;;;;;;;1.77;1.67;;;;;;;;;;4918151;29;20201;-86
2021/08/20 01:26:52;;;;;;;1.80;1.70;;;;;;;;;;4918230;29;20191;-86
2021/08/20 01:29:21;;;;;;;1.58;1.48;;;;;;;;;;4918086;29;20222;-86
2021/08/20 01:31:50;;;;;;;1.38;1.30;;;;;;;;;;4911688;29;20206;-86
2021/08/20 01:34:19;;;;;;;1.70;1.60;;;;;;;;;;4899094;29;20194;-86
2021/08/20 01:36:46;;;;;;;1.50;1.40;;;;;;;;;;4899069;29;20191;-86
2021/08/20 01:39:14;;;;;;;1.48;1.40;;;;;;;;;;4899088;29;20222;-86
2021/08/20 01:41:43;;;;;;;1.20;1.20;;;;;;;;;;4898976;29;20215;-85
2021/08/20 01:44:12;;;;;;;1.38;1.33;;;;;;;;;;4899042;29;20218;-86
2021/08/20 01:46:40;;;;;;;1.25;1.25;;;;;;;;;;4899189;29;20663;-86
2021/08/20 01:49:10;;;;;;;1.30;1.30;;;;;;;;;;4898938;29;20207;-85
2021/08/20 01:51:38;;;;;;;1.45;1.35;;;;;;;;;;4910466;29;20217;-86
2021/08/20 01:54:06;;;;;;;1.52;1.42;;;;;;;;;;4916173;29;20238;-85
2021/08/20 01:56:35;;;;;;;1.45;1.35;;;;;;;;;;4899426;29;20227;-86
2021/08/20 01:59:05;;;;;;;1.70;1.60;;;;;;;;;;4905592;29;20210;-86
2021/08/20 02:01:37;;;;;;;1.73;1.63;;;;;;;;;;4913584;29;20228;-86
2021/08/20 02:04:06;;;;;;;2.28;2.17;;;;;;;;;;4908223;29;20692;-89
2021/08/20 02:06:33;;;;;;;1.70;1.60;;;;;;;;;;4902086;29;20235;-87
2021/08/20 02:09:03;;;;;;;1.70;1.60;;;;;;;;;;4900797;29;20563;-88
2021/08/20 02:11:32;;;;;;;1.95;1.85;;;;;;;;;;4912159;29;20580;-87
2021/08/20 02:14:00;;;;;;;1.50;1.40;;;;;;;;;;4916300;29;20230;-87
2021/08/20 02:16:33;;;;;;;1.80;1.70;;;;;;;;;;4916948;29;20735;-87
2021/08/20 02:19:01;;;;;;;2.58;2.38;;;;;;;;;;4916976;29;20194;-87
2021/08/20 02:21:28;;;;;;;2.17;2.08;;;;;;;;;;4917177;29;20187;-86
2021/08/20 02:23:56;;;;;;;2.20;2.10;;;;;;;;;;4916887;29;20226;-86
2021/08/20 02:26:26;;;;;;;2.25;2.10;;;;;;;;;;4917302;29;20230;-87
2021/08/20 02:28:54;;;;;;;2.25;2.13;;;;;;;;;;4915947;29;20213;-87
2021/08/20 02:31:22;;;;;;;1.85;1.75;;;;;;;;;;4898112;29;20187;-86
2021/08/20 02:33:52;;;;;;;1.70;1.60;;;;;;;;;;4897359;29;20188;-86
2021/08/20 02:36:20;;;;;;;1.90;1.80;;;;;;;;;;4898321;29;20227;-86
2021/08/20 02:38:49;;;;;;;1.80;1.70;;;;;;;;;;4917060;29;20197;-86
2021/08/20 02:41:17;;;;;;;1.90;1.80;;;;;;;;;;4916792;29;20221;-88
2021/08/20 02:43:45;;;;;;;2.10;2.00;;;;;;;;;;4916600;29;20208;-86
2021/08/20 02:46:13;;;;;;;2.67;2.47;;;;;;;;;;4916110;29;20712;-86
2021/08/20 02:48:42;;;;;;;1.75;1.65;;;;;;;;;;4916691;29;20191;-86
2021/08/20 02:51:13;;;;;;;2.03;1.92;;;;;;;;;;4916494;29;20191;-87
2021/08/20 02:53:41;;;;;;;2.20;2.10;;;;;;;;;;4916738;29;20725;-87
2021/08/20 02:56:08;;;;;;;2.67;2.47;;;;;;;;;;4916869;29;20238;-86
2021/08/20 02:58:36;;;;;;;2.10;2.00;;;;;;;;;;4916650;29;20195;-86
2021/08/20 03:01:04;;;;;;;2.42;2.22;;;;;;;;;;4911417;29;20213;-85
2021/08/20 03:03:31;;;;;;;2.25;2.15;;;;;;;;;;4916284;29;20217;-85
2021/08/20 03:05:59;;;;;;;2.28;2.10;;;;;;;;;;4912050;29;20214;-88
2021/08/20 03:08:27;;;;;;;3.35;2.38;;;;;;;;;;4918816;29;20197;-87
2021/08/20 03:10:55;;;;;;;2.40;2.20;;;;;;;;;;4917855;29;20206;-88
2021/08/20 03:13:22;;;;;;;1.98;1.88;;;;;;;;;;4916228;29;20202;-88
2021/08/20 03:15:50;;;;;;;1.77;1.67;;;;;;;;;;4916191;29;20234;-87
2021/08/20 03:18:17;;;;;;;2.08;1.98;;;;;;;;;;4915944;29;20221;-87
2021/08/20 03:20:44;;;;;;;1.98;1.88;;;;;;;;;;4916244;29;20206;-87
2021/08/20 03:23:12;;;;;;;2.10;2.00;;;;;;;;;;4916145;29;20253;-87
2021/08/20 03:25:40;;;;;;;2.00;1.90;;;;;;;;;;4916166;29;20226;-85
2021/08/20 03:28:08;;;;;;;3.25;3.05;;;;;;;;;;4916629;29;20217;-85
2021/08/20 03:30:36;;;;;;;3.10;2.90;;;;;;;;;;4916553;29;20222;-87
2021/08/20 03:33:05;;;;;;;2.67;2.47;;;;;;;;;;4916209;29;20210;-88
2021/08/20 03:35:32;;;;;;;2.55;2.35;;;;;;;;;;4916101;29;20233;-87
2021/08/20 03:38:00;;;;;;;2.67;2.47;;;;;;;;;;4915964;29;20206;-87
2021/08/20 03:40:28;;;;;;;2.45;2.25;;;;;;;;;;4915963;29;20305;-87
2021/08/20 03:42:57;;;;;;;2.42;2.22;;;;;;;;;;4915940;29;20682;-85
2021/08/20 03:45:25;;;;;;;2.85;2.65;;;;;;;;;;4918394;29;20230;-85
2021/08/20 03:47:52;;;;;;;2.95;2.75;;;;;;;;;;4920194;29;20210;-87
2021/08/20 03:50:19;;;;;;;2.35;2.25;;;;;;;;;;4919332;29;20221;-86
2021/08/20 03:52:47;;;;;;;3.80;3.50;;;;;;;;;;4919860;29;20210;-87
2021/08/20 03:55:15;;;;;;;2.78;2.58;;;;;;;;;;4901305;29;20234;-85
2021/08/20 03:57:42;;;;;;;2.97;2.78;;;;;;;;;;4901199;29;20433;-85
2021/08/20 04:00:12;;;;;;;2.75;2.55;;;;;;;;;;4900782;29;20589;-87
2021/08/20 04:02:40;;;;;;;3.05;2.85;;;;;;;;;;4900466;29;20207;-87
2021/08/20 04:05:08;;;;;;;4.78;3.55;;;;;;;;;;4900730;29;20227;-87
2021/08/20 04:07:35;;;;;;;4.45;4.05;;;;;;;;;;4900346;29;20207;-88
2021/08/20 04:10:03;;;;;;;3.65;3.35;;;;;;;;;;4900630;29;20203;-87
2021/08/20 04:12:31;;;;;;;4.25;3.42;;;;;;;;;;4901094;29;20187;-87
2021/08/20 04:14:59;;;;;;;4.47;3.55;;;;;;;;;;4900336;29;20242;-87
2021/08/20 04:17:28;;;;;;;2.75;2.55;;;;;;;;;;4900405;29;20186;-88
2021/08/20 04:19:56;;;;;;;3.00;2.80;;;;;;;;;;4900312;29;20211;-87
2021/08/20 04:22:23;;;;;;;2.60;2.40;;;;;;;;;;4900360;29;20699;-87
2021/08/20 04:24:50;;;;;;;3.35;3.05;;;;;;;;;;4900225;29;20231;-87
2021/08/20 04:27:18;;;;;;;3.25;3.05;;;;;;;;;;4899996;29;20214;-87
2021/08/20 04:29:46;;;;;;;3.47;3.17;;;;;;;;;;4900238;29;20203;-87
2021/08/20 04:32:13;;;;;;;3.45;3.15;;;;;;;;;;4900603;29;20196;-88
2021/08/20 04:34:42;;;;;;;3.60;3.30;;;;;;;;;;4900089;29;20616;-87
2021/08/20 04:37:09;;;;;;;3.70;3.40;;;;;;;;;;4900077;29;20206;-88
2021/08/20 04:39:37;;;;;;;3.30;3.00;;;;;;;;;;4900035;29;20689;-87
2021/08/20 04:42:05;;;;;;;3.70;3.40;;;;;;;;;;4899959;29;20203;-88
2021/08/20 04:44:33;;;;;;;3.63;3.35;;;;;;;;;;4899562;29;20234;-86
2021/08/20 04:47:00;;;;;;;2.97;2.78;;;;;;;;;;4900007;29;20210;-88
2021/08/20 04:49:28;;;;;;;3.45;3.15;;;;;;;;;;4899992;29;20617;-88
2021/08/20 04:51:56;;;;;;;2.97;2.78;;;;;;;;;;4899561;29;20203;-88
2021/08/20 04:54:25;;;;;;;2.90;2.70;;;;;;;;;;4912115;29;20241;-88
2021/08/20 04:56:53;;;;;;;2.95;2.75;;;;;;;;;;4917362;29;20206;-88
2021/08/20 04:59:20;;;;;;;3.00;2.70;;;;;;;;;;4918458;29;20233;-88
2021/08/20 05:01:47;;;;;;;2.67;2.47;;;;;;;;;;4919215;29;20574;-86
2021/08/20 05:04:15;;;;;;;2.33;2.13;;;;;;;;;;4920052;29;20218;-87
2021/08/20 05:06:42;;;;;;;2.50;2.30;;;;;;;;;;4919527;29;20206;-87
2021/08/20 05:09:11;;;;;;;2.00;1.90;;;;;;;;;;4919912;29;20213;-86
2021/08/20 05:11:39;;;;;;;2.95;2.75;;;;;;;;;;4919803;29;20210;-86
2021/08/20 05:14:07;;;;;;;3.50;3.20;;;;;;;;;;4919430;29;20260;-86
2021/08/20 05:16:34;;;;;;;4.65;4.15;;;;;;;;;;4919515;29;20723;-87
2021/08/20 05:19:01;;;;;;;2.70;2.50;;;;;;;;;;4919615;29;20209;-87
2021/08/20 05:21:29;;;;;;;2.90;2.70;;;;;;;;;;4920019;29;20198;-87
2021/08/20 05:23:56;;;;;;;3.97;3.55;;;;;;;;;;4920214;29;20230;-86
2021/08/20 05:26:25;;;;;;;2.30;2.13;;;;;;;;;;4919462;29;20226;-87
2021/08/20 05:28:53;;;;;;;2.50;2.30;;;;;;;;;;4918830;29;20210;-87
2021/08/20 05:31:20;;;;;;;2.42;2.28;;;;;;;;;;4918570;29;20199;-87
2021/08/20 05:33:48;;;;;;;2.30;2.10;;;;;;;;;;4919097;29;20206;-87
2021/08/20 05:36:15;;;;;;;2.38;2.25;;;;;;;;;;4918370;29;20729;-87
2021/08/20 05:38:43;;;;;;;2.42;2.30;;;;;;;;;;4918077;29;20213;-87
2021/08/20 05:41:11;;;;;;;2.22;2.13;;;;;;;;;;4918206;29;20286;-87
2021/08/20 05:43:40;;;;;;;2.10;2.00;;;;;;;;;;4918270;29;20570;-87
2021/08/20 05:46:07;;;;;;;2.20;2.00;;;;;;;;;;4918136;29;20241;-85
2021/08/20 05:48:35;;;;;;;2.50;2.30;;;;;;;;;;4919019;29;20202;-87
2021/08/20 05:51:05;;;;;;;2.88;2.67;;;;;;;;;;4918112;29;20207;-87
2021/08/20 05:53:33;;;;;;;3.28;2.20;;;;;;;;;;4918264;29;20713;-87
2021/08/20 05:56:00;;;;;;;2.17;2.08;;;;;;;;;;4918394;29;20614;-85
2021/08/20 05:58:27;;;;;;;2.92;2.65;;;;;;;;;;4918713;29;20592;-84
2021/08/20 06:00:57;;;;;;;3.33;3.03;;;;;;;;;;4919246;29;20213;-84
2021/08/20 06:03:25;;;;;;;3.42;3.13;;;;;;;;;;4918159;29;20213;-86
2021/08/20 06:05:52;;;;;;;2.78;2.58;;;;;;;;;;4917495;29;20238;-86
2021/08/20 06:08:20;;;;;;;3.40;3.17;;;;;;;;;;4917431;29;20210;-86
2021/08/20 06:10:48;;;;;;;4.43;4.13;;;;;;;;;;4918726;29;20206;-86
2021/08/20 06:13:15;;;;;;;3.67;3.38;;;;;;;;;;4919192;29;20217;-86
2021/08/20 06:15:43;;;;;;;2.90;2.70;;;;;;;;;;4919005;29;20226;-85
2021/08/20 06:18:12;;;;;;;2.85;2.65;;;;;;;;;;4919899;29;20229;-86
2021/08/20 06:20:39;;;;;;;3.28;2.97;;;;;;;;;;4920087;29;20581;-86
2021/08/20 06:23:06;;;;;;;4.15;3.85;;;;;;;;;;4919884;29;20595;-86
2021/08/20 06:25:34;;;;;;;4.38;4.07;;;;;;;;;;4925641;29;20230;-87
2021/08/20 06:28:01;;;;;;;8.48;7.78;;;;;;;;;;4928004;29;20211;-86
2021/08/20 06:30:29;;;;;;;5.80;5.30;;;;;;;;;;4919390;29;20208;-86
2021/08/20 06:32:57;;;;;;;6.60;6.00;;;;;;;;;;4918195;29;20226;-87
2021/08/20 06:35:26;;;;;;;8.27;7.55;;;;;;;;;;4918879;29;20226;-85
2021/08/20 06:37:53;;;;;;;7.63;6.93;;;;;;;;;;4915677;29;20206;-86
2021/08/20 06:40:21;;;;;;;5.15;4.65;;;;;;;;;;4917532;29;20233;-88
2021/08/20 06:42:48;;;;;;;4.50;4.10;;;;;;;;;;4914959;29;20213;-84
2021/08/20 06:45:15;;;;;;;5.47;5.05;;;;;;;;;;4918384;29;20237;-84
2021/08/20 06:47:43;;;;;;;7.22;6.53;;;;;;;;;;4918041;29;20212;-85
2021/08/20 06:50:11;;;;;;;8.85;7.90;;;;;;;;;;4918158;29;20206;-86
2021/08/20 06:52:40;;;;;;;7.13;6.43;;;;;;;;;;4917737;29;20285;-85
2021/08/20 06:55:08;;;;;;;9.05;8.15;;;;;;;;;;4917771;29;20245;-85
2021/08/20 06:57:35;;;;;;;7.20;6.60;;;;;;;;;;4918198;29;20590;-85
2021/08/20 07:03:45;;;;;;;7.40;6.80;;;;;;;;;;4920419;29;20704;-85
2021/08/20 07:06:20;;;;;;;8.10;7.10;;;;;;;;;;4917471;29;20232;-86
2021/08/20 07:08:49;;;;;;;6.88;6.25;;;;;;;;;;4918401;29;20194;-86
2021/08/20 07:11:17;;;;;;;8.13;7.18;;;;;;;;;;4918359;29;20203;-85
2021/08/20 07:13:44;;;;;;;5.60;5.10;;;;;;;;;;4918377;29;20673;-85
2021/08/20 07:16:12;;;;;;;7.15;6.45;;;;;;;;;;4918664;29;20581;-85
2021/08/20 07:18:40;;;;;;;7.53;6.82;;;;;;;;;;4918620;29;20214;-86
2021/08/20 07:21:08;;;;;;;5.50;5.07;;;;;;;;;;4917879;29;20206;-86
2021/08/20 07:23:35;;;;;;;5.65;5.25;;;;;;;;;;4917595;29;20225;-85
2021/08/20 07:26:06;;;;;;;6.57;5.63;;;;;;;;;;4916154;29;20241;-85
2021/08/20 07:28:34;;;;;;;6.65;6.05;;;;;;;;;;4916336;29;20229;-85
2021/08/20 07:31:03;;;;;;;5.78;5.25;;;;;;;;;;4916127;29;20221;-85
2021/08/20 07:33:31;;;;;;;4.80;4.40;;;;;;;;;;4916001;29;20211;-84
2021/08/20 07:35:58;;;;;;;5.82;5.32;;;;;;;;;;4916296;29;20229;-85
2021/08/20 07:38:26;;;;;;;6.57;5.97;;;;;;;;;;4916423;29;20206;-84
2021/08/20 07:40:53;;;;;;;7.47;6.80;;;;;;;;;;4916413;29;20195;-85
2021/08/20 07:43:22;;;;;;;5.32;4.63;;;;;;;;;;4916094;29;20206;-85
2021/08/20 07:45:50;;;;;;;5.80;5.30;;;;;;;;;;4916318;29;20325;-84
2021/08/20 07:48:17;;;;;;;5.28;4.80;;;;;;;;;;4915952;29;20207;-84
2021/08/20 07:50:48;;;;;;;5.15;4.75;;;;;;;;;;4915718;29;20202;-84
2021/08/20 07:53:16;;;;;;;4.68;4.28;;;;;;;;;;4919160;29;20230;-84
2021/08/20 07:55:44;;;;;;;3.95;3.65;;;;;;;;;;4934701;29;20273;-84
2021/08/20 07:58:12;;;;;;;3.63;3.33;;;;;;;;;;4934585;29;20210;-84
2021/08/20 08:00:41;;;;;;;5.05;4.55;;;;;;;;;;4934670;29;20680;-84
2021/08/20 08:03:08;;;;;;;5.00;4.60;;;;;;;;;;4917221;29;20238;-84
2021/08/20 08:05:36;;;;;;;6.07;5.47;;;;;;;;;;4915913;29;20671;-84
2021/08/20 08:08:04;;;;;;;3.88;3.60;;;;;;;;;;4915976;29;20207;-84
2021/08/20 08:10:31;;;;;;;3.05;2.85;;;;;;;;;;4915907;29;20207;-84
2021/08/20 08:12:58;;;;;;;5.18;4.78;;;;;;;;;;4932189;29;20212;-83
2021/08/20 08:15:26;;;;;;;4.47;4.07;;;;;;;;;;4935164;29;20214;-84
2021/08/20 08:17:56;;;;;;;4.20;3.90;;;;;;;;;;4935150;29;20210;-84
2021/08/20 08:20:24;;;;;;;4.35;4.05;;;;;;;;;;4934952;29;20201;-84
2021/08/20 08:22:51;;;;;;;3.40;3.10;;;;;;;;;;4934827;29;20213;-84
2021/08/20 08:25:20;;;;;;;6.05;5.55;;;;;;;;;;4934356;29;20226;-84
2021/08/20 08:27:56;;;;;;;6.35;5.75;;;;;;;;;;4935022;29;20253;-84
2021/08/20 08:30:25;;;;;;;5.20;4.70;;;;;;;;;;4935420;29;20226;-84
2021/08/20 08:32:54;;;;;;;3.58;3.28;;;;;;;;;;4921958;29;20220;-84
2021/08/20 08:35:22;;;;;;;4.25;3.67;;;;;;;;;;4919587;29;20258;-84
2021/08/20 08:37:50;;;;;;;4.32;4.03;;;;;;;;;;4919032;29;20199;-84
2021/08/20 08:40:18;;;;;;;4.80;4.40;;;;;;;;;;4919648;29;20206;-84
2021/08/20 08:42:47;;;;;;;5.13;4.63;;;;;;;;;;4934185;29;20202;-84
2021/08/20 08:45:14;;;;;;;5.25;4.72;;;;;;;;;;4939086;29;20634;-84
2021/08/20 08:47:42;;;;;;;6.15;5.55;;;;;;;;;;4938220;29;20611;-83
2021/08/20 08:50:12;;;;;;;5.50;5.00;;;;;;;;;;4938074;29;20578;-84
2021/08/20 08:52:39;;;;;;;5.75;5.25;;;;;;;;;;4924494;29;20194;-84
2021/08/20 08:55:09;;;;;;;5.75;5.25;;;;;;;;;;4919105;29;20624;-84
2021/08/20 08:57:36;;;;;;;7.25;6.55;;;;;;;;;;4919308;29;20680;-84
2021/08/20 09:00:06;;;;;;;7.00;6.40;;;;;;;;;;4920461;29;20210;-84
2021/08/20 09:02:35;;;;;;;5.90;5.40;;;;;;;;;;4919787;29;20207;-84
2021/08/20 09:05:06;;;;;;;6.07;5.57;;;;;;;;;;4919526;29;20241;-84
2021/08/20 09:07:35;;;;;;;5.88;5.43;;;;;;;;;;4920203;29;20234;-84
2021/08/20 09:10:14;;;;;;;5.85;5.35;;;;;;;;;;4919945;29;20210;-84
2021/08/20 09:12:54;;;;;;;5.57;5.07;;;;;;;;;;4919774;29;20209;-84
2021/08/20 09:15:23;;;;;;;5.88;5.38;;;;;;;;;;4919575;29;20222;-84
2021/08/20 09:17:53;;;;;;;6.25;5.63;;;;;;;;;;4920492;29;20202;-84
2021/08/20 09:20:24;;;;;;;6.38;5.78;;;;;;;;;;4920358;29;20210;-84
2021/08/20 09:22:55;;;;;;;6.28;5.78;;;;;;;;;;4919533;29;20673;-84
2021/08/20 09:25:35;;;;;;;7.75;5.40;;;;;;;;;;4919342;29;20227;-84
2021/08/20 09:28:22;;;;;;;5.15;4.68;;;;;;;;;;4919552;29;20713;-84
2021/08/20 09:31:09;;;;;;;5.88;4.53;;;;;;;;;;4919590;29;20213;-85
2021/08/20 09:33:39;;;;;;;5.05;4.00;;;;;;;;;;4901374;29;20218;-85
2021/08/20 09:36:08;;;;;;;4.60;4.20;;;;;;;;;;4901123;29;20238;-85
2021/08/20 09:38:39;;;;;;;6.90;6.30;;;;;;;;;;4900331;29;20213;-85
2021/08/20 09:41:10;;;;;;;5.57;5.07;;;;;;;;;;4901374;29;20206;-84
2021/08/20 09:43:40;;;;;;;6.30;5.70;;;;;;;;;;4919649;29;20258;-85
2021/08/20 09:46:10;;;;;;;6.93;6.43;;;;;;;;;;4919604;29;20233;-84
2021/08/20 09:48:56;;;;;;;8.15;7.43;;;;;;;;;;4919154;29;20228;-85
2021/08/20 09:51:46;;;;;;;8.20;7.35;;;;;;;;;;4923571;29;20209;-85
2021/08/20 09:54:23;;;;;;;5.63;5.10;;;;;;;;;;4921102;29;20230;-85
2021/08/20 09:56:51;;;;;;;6.35;5.85;;;;;;;;;;4917922;29;20285;-84
2021/08/20 09:59:19;;;;;;;6.20;5.70;;;;;;;;;;4917865;29;20187;-84
2021/08/20 10:01:48;;;;;;;4.32;4.03;;;;;;;;;;4917822;29;20209;-84
2021/08/20 10:04:17;;;;;;;6.00;5.45;;;;;;;;;;4917488;29;20195;-83
2021/08/20 10:06:47;;;;;;;4.90;4.50;;;;;;;;;;4917577;29;20209;-83
2021/08/20 10:09:18;;;;;;;4.50;4.20;;;;;;;;;;4917497;29;20197;-83
2021/08/20 10:11:49;;;;;;;6.32;5.82;;;;;;;;;;4917099;29;20270;-82
2021/08/20 10:14:17;;;;;;;6.28;5.78;;;;;;;;;;4916566;29;20217;-82
2021/08/20 10:16:45;;;;;;;5.90;5.40;;;;;;;;;;4917305;29;20576;-84
2021/08/20 10:19:13;;;;;;;6.28;5.78;;;;;;;;;;4917390;29;20217;-83
2021/08/20 10:21:43;;;;;;;5.03;4.60;;;;;;;;;;4917052;29;20669;-82
2021/08/20 10:24:12;;;;;;;4.45;4.15;;;;;;;;;;4917271;29;20198;-83
2021/08/20 10:26:45;;;;;;;5.78;5.28;;;;;;;;;;4917161;29;20190;-82
2021/08/20 10:29:13;;;;;;;5.93;5.38;;;;;;;;;;4917067;29;20191;-83
2021/08/20 10:31:42;;;;;;;5.90;5.40;;;;;;;;;;4916867;29;20195;-90
2021/08/20 10:34:39;;;;;;;6.03;5.43;;;;;;;;;;4917130;29;20202;-82
2021/08/20 10:37:13;;;;;;;6.00;5.50;;;;;;;;;;4911666;29;20213;-83
2021/08/20 10:39:42;;;;;;;5.90;5.40;;;;;;;;;;4916859;29;20200;-84
2021/08/20 10:42:13;;;;;;;4.88;4.47;;;;;;;;;;4907299;29;20195;-85
2021/08/20 10:44:43;;;;;;;5.03;4.63;;;;;;;;;;4898006;29;20226;-84
2021/08/20 10:47:23;;;;;;;4.85;4.40;;;;;;;;;;4901382;29;20270;-84
2021/08/20 10:49:52;;;;;;;4.90;4.55;;;;;;;;;;4917050;29;20182;-84
2021/08/20 10:52:29;;;;;;;4.63;4.22;;;;;;;;;;4917286;29;20246;-84
2021/08/20 10:55:25;;;;;;;4.88;4.53;;;;;;;;;;4916263;29;20241;-84
2021/08/20 10:58:03;;;;;;;4.47;4.18;;;;;;;;;;4917819;29;20197;-84
2021/08/20 11:00:31;;;;;;;3.72;3.42;;;;;;;;;;4917324;29;20191;-84
2021/08/20 11:03:00;;;;;;;4.28;3.97;;;;;;;;;;4916923;29;20198;-84
2021/08/20 11:05:46;;;;;;;5.22;4.82;;;;;;;;;;4917413;29;20233;-83
2021/08/20 11:08:44;;;;;;;3.72;3.50;;;;;;;;;;4916435;29;20210;-84
2021/08/20 11:11:45;;;;;;;3.53;3.33;;;;;;;;;;4916827;29;20639;-84
2021/08/20 11:14:36;;;;;;;4.00;3.70;;;;;;;;;;4916866;29;20198;-85
2021/08/20 11:17:05;;;;;;;3.75;3.45;;;;;;;;;;4916835;29;20189;-84
2021/08/20 11:19:55;;;;;;;3.17;2.97;;;;;;;;;;4917035;29;20194;-85
2021/08/20 11:22:32;;;;;;;3.60;3.30;;;;;;;;;;4916485;29;20201;-84
2021/08/20 11:25:25;;;;;;;4.30;4.00;;;;;;;;;;4916778;29;20732;-84
2021/08/20 11:28:01;;;;;;;3.33;3.08;;;;;;;;;;4917270;29;20614;-84
2021/08/20 11:30:33;;;;;;;3.42;3.22;;;;;;;;;;4917075;29;20242;-84
2021/08/20 11:33:21;;;;;;;3.35;3.10;;;;;;;;;;4917055;29;20199;-84
2021/08/20 11:35:56;;;;;;;3.60;3.00;;;;;;;;;;4916588;29;20234;-86
2021/08/20 11:38:30;;;;;;;3.92;3.63;;;;;;;;;;4916599;29;20318;-84
2021/08/20 11:41:11;;;;;;;3.35;3.15;;;;;;;;;;4917253;29;20186;-85
2021/08/20 11:43:39;;;;;;;2.72;2.53;;;;;;;;;;4917075;29;20194;-84
2021/08/20 11:46:14;;;;;;;2.63;2.42;;;;;;;;;;4916313;29;20233;-86
2021/08/20 11:48:47;;;;;;;4.05;3.40;;;;;;;;;;4916829;29;20206;-85
2021/08/20 11:51:23;;;;;;;3.20;3.00;;;;;;;;;;4914156;29;20187;-85
2021/08/20 11:53:51;;;;;;;3.40;3.20;;;;;;;;;;4898014;29;20246;-85
2021/08/20 11:56:19;;;;;;;3.70;3.40;;;;;;;;;;4897681;29;20235;-85
2021/08/20 11:58:47;;;;;;;3.15;2.95;;;;;;;;;;4898542;29;20195;-84
2021/08/20 12:01:23;;;;;;;3.20;3.00;;;;;;;;;;4900526;29;20561;-85
2021/08/20 12:03:53;;;;;;;2.92;2.72;;;;;;;;;;4916524;29;20191;-85
2021/08/20 12:06:21;;;;;;;1.95;1.85;;;;;;;;;;4918635;29;20234;-85
2021/08/20 12:08:48;;;;;;;2.88;2.70;;;;;;;;;;4920229;29;20223;-85
2021/08/20 12:11:22;;;;;;;2.65;2.45;;;;;;;;;;4920042;29;20581;-85
2021/08/20 12:13:52;;;;;;;3.10;2.90;;;;;;;;;;4920446;29;20186;-85
2021/08/20 12:16:42;;;;;;;2.78;2.58;;;;;;;;;;4919805;29;20223;-85
2021/08/20 12:19:22;;;;;;;3.03;2.83;;;;;;;;;;4920126;29;20203;-85
2021/08/20 12:21:51;;;;;;;2.67;2.47;;;;;;;;;;4920267;29;20231;-85
2021/08/20 12:24:33;;;;;;;2.17;2.08;;;;;;;;;;4920089;29;20218;-86
2021/08/20 12:27:14;;;;;;;2.10;2.00;;;;;;;;;;4919972;29;20186;-85
2021/08/20 12:29:42;;;;;;;2.28;2.17;;;;;;;;;;4919962;29;20221;-86
2021/08/20 12:32:22;;;;;;;1.80;1.70;;;;;;;;;;4919694;29;20202;-86
2021/08/20 12:34:58;;;;;;;3.40;3.10;;;;;;;;;;4919651;29;20634;-85
2021/08/20 12:37:29;;;;;;;2.40;2.28;;;;;;;;;;4920621;29;20190;-85
2021/08/20 12:40:06;;;;;;;2.83;2.63;;;;;;;;;;4919870;29;20268;-85
2021/08/20 12:42:34;;;;;;;2.28;2.15;;;;;;;;;;4919881;29;20561;-85
2021/08/20 12:45:14;;;;;;;2.50;2.30;;;;;;;;;;4919926;29;20319;-85
2021/08/20 12:47:45;;;;;;;2.25;2.15;;;;;;;;;;4920304;29;20206;-85
2021/08/20 12:50:14;;;;;;;2.25;2.15;;;;;;;;;;4920499;29;20249;-85
2021/08/20 12:52:43;;;;;;;2.20;2.10;;;;;;;;;;4919670;29;20194;-86
2021/08/20 12:55:28;;;;;;;2.20;2.00;;;;;;;;;;4937788;29;20237;-86
2021/08/20 12:57:55;;;;;;;1.80;1.70;;;;;;;;;;4938082;29;20201;-86
2021/08/20 13:00:23;;;;;;;3.00;2.80;;;;;;;;;;4938985;29;20190;-86
2021/08/20 13:02:52;;;;;;;2.42;2.33;;;;;;;;;;4908097;29;20214;-86
2021/08/20 13:05:20;;;;;;;1.77;1.67;;;;;;;;;;4900147;29;20610;-87
2021/08/20 13:07:48;;;;;;;2.10;2.00;;;;;;;;;;4900209;29;20211;-86
2021/08/20 13:10:16;;;;;;;1.70;1.60;;;;;;;;;;4900302;29;20215;-86
2021/08/20 13:12:44;;;;;;;1.83;1.73;;;;;;;;;;4914466;29;20199;-86
2021/08/20 13:15:12;;;;;;;1.95;1.80;;;;;;;;;;4919039;29;20230;-86
2021/08/20 13:17:39;;;;;;;1.98;1.88;;;;;;;;;;4918100;29;20210;-86
2021/08/20 13:20:11;;;;;;;3.20;2.20;;;;;;;;;;4919546;29;20197;-86
2021/08/20 13:22:41;;;;;;;1.80;1.70;;;;;;;;;;4934794;29;20217;-85
2021/08/20 13:25:10;;;;;;;2.20;2.00;;;;;;;;;;4941706;29;20672;-86
2021/08/20 13:27:38;;;;;;;2.13;2.03;;;;;;;;;;4945224;29;20641;-87
2021/08/20 13:30:07;;;;;;;2.10;2.00;;;;;;;;;;4938150;29;20209;-86
2021/08/20 13:32:35;;;;;;;2.10;2.00;;;;;;;;;;4932774;29;20201;-85
2021/08/20 13:35:03;;;;;;;2.22;2.13;;;;;;;;;;4937000;29;20253;-85
2021/08/20 13:37:33;;;;;;;1.77;1.67;;;;;;;;;;4937037;29;20664;-85
2021/08/20 13:40:00;;;;;;;2.33;2.20;;;;;;;;;;4936940;29;20190;-86
2021/08/20 13:42:29;;;;;;;2.40;2.25;;;;;;;;;;4925308;29;20203;-86
2021/08/20 13:44:57;;;;;;;2.00;1.90;;;;;;;;;;4917222;29;20234;-85
2021/08/20 13:47:25;;;;;;;2.30;2.10;;;;;;;;;;4918215;29;20202;-85
2021/08/20 13:49:53;;;;;;;2.53;2.33;;;;;;;;;;4917941;29;20223;-85
2021/08/20 13:52:21;;;;;;;2.25;2.10;;;;;;;;;;4929449;29;20205;-85
2021/08/20 13:54:49;;;;;;;4.57;2.22;;;;;;;;;;4936476;29;20244;-86
2021/08/20 13:57:17;;;;;;;2.22;2.13;;;;;;;;;;4936699;29;20213;-86
2021/08/20 13:59:44;;;;;;;2.35;2.25;;;;;;;;;;4936799;29;20210;-85
2021/08/20 14:02:12;;;;;;;2.45;1.92;;;;;;;;;;4927275;29;20207;-84
2021/08/20 14:04:39;;;;;;;1.90;1.80;;;;;;;;;;4918461;29;20693;-86
2021/08/20 14:07:07;;;;;;;2.10;2.00;;;;;;;;;;4917339;29;20187;-86
2021/08/20 14:09:36;;;;;;;2.15;2.00;;;;;;;;;;4917713;29;20222;-85
2021/08/20 14:12:05;;;;;;;2.05;1.95;;;;;;;;;;4908608;29;20679;-86
2021/08/20 14:14:33;;;;;;;1.85;1.75;;;;;;;;;;4898395;29;20187;-85
2021/08/20 14:17:00;;;;;;;1.75;1.65;;;;;;;;;;4898432;29;20188;-86
2021/08/20 14:19:28;;;;;;;2.33;2.22;;;;;;;;;;4898079;29;20209;-86
2021/08/20 14:21:55;;;;;;;2.03;1.92;;;;;;;;;;4898124;29;20204;-85
2021/08/20 14:24:23;;;;;;;1.85;1.75;;;;;;;;;;4897895;29;20254;-86
2021/08/20 14:26:50;;;;;;;2.58;2.38;;;;;;;;;;4898206;29;20203;-86
2021/08/20 14:29:20;;;;;;;2.58;2.47;;;;;;;;;;4897866;29;20187;-88
2021/08/20 14:31:47;;;;;;;2.05;1.92;;;;;;;;;;4911458;29;20186;-85
2021/08/20 14:34:15;;;;;;;2.03;1.92;;;;;;;;;;4935807;29;20202;-88
2021/08/20 14:36:42;;;;;;;2.47;2.38;;;;;;;;;;4935811;29;20220;-85
2021/08/20 14:39:10;;;;;;;1.88;1.77;;;;;;;;;;4935880;29;20645;-85
2021/08/20 14:41:38;;;;;;;1.77;1.67;;;;;;;;;;4924788;29;20657;-84
2021/08/20 14:44:07;;;;;;;1.90;1.80;;;;;;;;;;4898204;29;20191;-85
2021/08/20 14:46:36;;;;;;;2.55;1.80;;;;;;;;;;4898137;29;20234;-85
2021/08/20 14:49:03;;;;;;;2.08;1.98;;;;;;;;;;4898814;29;20209;-86
2021/08/20 14:51:31;;;;;;;1.90;1.80;;;;;;;;;;4903990;29;20206;-85
2021/08/20 14:53:59;;;;;;;2.22;2.05;;;;;;;;;;4916480;29;20321;-86
2021/08/20 14:56:27;;;;;;;2.35;2.25;;;;;;;;;;4918078;29;20222;-86
2021/08/20 14:58:54;;;;;;;2.28;2.17;;;;;;;;;;4916436;29;20209;-85
2021/08/20 15:01:22;;;;;;;2.40;1.65;;;;;;;;;;4916124;29;20213;-86